createdAt,value
2019-02-24T00:01:57.274Z,10.72
2019-02-24T00:04:26.122Z,9.55
2019-02-24T00:06:53.177Z,8.88
2019-02-24T00:09:20.241Z,10.53
2019-02-24T00:11:47.394Z,10.48
2019-02-24T00:14:15.577Z,9.88
2019-02-24T00:16:42.664Z,9.13
2019-02-24T00:19:09.718Z,11.15
2019-02-24T00:21:36.805Z,10.93
2019-02-24T00:24:03.846Z,9.95
2019-02-24T00:26:32.003Z,10.63
2019-02-24T00:28:59.178Z,9.95
2019-02-24T00:31:27.442Z,9.30
2019-02-24T00:33:54.491Z,10.70
2019-02-24T00:36:21.666Z,9.13
2019-02-24T00:38:48.706Z,9.95
2019-02-24T00:41:15.954Z,10.18
2019-02-24T00:43:43.331Z,10.25
2019-02-24T00:46:10.406Z,10.63
2019-02-24T00:48:37.778Z,9.78
2019-02-24T00:51:04.850Z,9.75
2019-02-24T00:53:31.918Z,8.68
2019-02-24T00:55:59.032Z,9.55
2019-02-24T00:58:26.093Z,10.65
2019-02-24T01:00:54.269Z,10.23
2019-02-24T01:03:22.752Z,9.88
2019-02-24T01:05:49.809Z,10.48
2019-02-24T01:08:17.174Z,9.80
2019-02-24T01:10:44.303Z,9.55
2019-02-24T01:13:11.400Z,9.73
2019-02-24T01:15:38.454Z,10.45
2019-02-24T01:18:05.504Z,9.88
2019-02-24T01:20:34.414Z,10.82
2019-02-24T01:23:01.586Z,11.15
2019-02-24T01:25:29.849Z,10.40
2019-02-24T01:27:56.922Z,11.50
2019-02-24T01:30:25.041Z,9.90
2019-02-24T01:32:52.089Z,9.60
2019-02-24T01:35:19.543Z,11.30
2019-02-24T01:37:47.530Z,9.15
2019-02-24T01:40:15.189Z,10.50
2019-02-24T01:42:42.854Z,12.07
2019-02-24T01:45:09.910Z,9.95
2019-02-24T01:47:36.955Z,10.35
2019-02-24T01:50:05.478Z,10.38
2019-02-24T01:52:32.588Z,9.85
2019-02-24T01:55:01.447Z,10.85
2019-02-24T01:57:29.528Z,11.12
2019-02-24T01:59:56.590Z,10.00
2019-02-24T02:02:23.662Z,12.10
2019-02-24T02:04:50.714Z,10.68
2019-02-24T02:07:19.645Z,10.13
2019-02-24T02:09:46.722Z,10.70
2019-02-24T02:12:13.779Z,12.05
2019-02-24T02:14:41.206Z,10.63
2019-02-24T02:17:10.355Z,12.23
2019-02-24T02:19:37.409Z,12.00
2019-02-24T02:22:04.825Z,11.73
2019-02-24T02:24:32.177Z,12.43
2019-02-24T02:26:59.225Z,11.45
2019-02-24T02:29:26.305Z,11.73
2019-02-24T02:31:53.352Z,12.95
2019-02-24T02:34:20.397Z,11.90
2019-02-24T02:36:48.598Z,12.65
2019-02-24T02:39:15.679Z,12.10
2019-02-24T02:41:42.793Z,11.18
2019-02-24T02:44:09.879Z,11.55
2019-02-24T02:46:36.930Z,11.70
2019-02-24T02:49:05.351Z,11.70
2019-02-24T02:51:33.468Z,12.80
2019-02-24T02:54:00.564Z,11.48
2019-02-24T02:56:29.733Z,12.60
2019-02-24T02:58:57.497Z,12.55
2019-02-24T03:01:24.845Z,12.35
2019-02-24T03:03:52.921Z,10.95
2019-02-24T03:06:32.873Z,11.12
2019-02-24T03:09:00.262Z,11.65
2019-02-24T03:11:27.530Z,11.95
2019-02-24T03:13:54.834Z,12.55
2019-02-24T03:16:27.094Z,12.37
2019-02-24T03:18:54.457Z,12.53
2019-02-24T03:21:21.860Z,12.28
2019-02-24T03:23:49.843Z,12.10
2019-02-24T03:26:17.243Z,12.13
2019-02-24T03:28:44.299Z,11.43
2019-02-24T03:31:11.729Z,12.75
2019-02-24T03:33:39.797Z,12.95
2019-02-24T03:36:06.854Z,12.18
2019-02-24T03:38:34.271Z,13.55
2019-02-24T03:41:02.901Z,13.58
2019-02-24T03:43:32.415Z,12.90
2019-02-24T03:45:59.476Z,12.63
2019-02-24T03:48:29.168Z,13.10
2019-02-24T03:50:56.826Z,11.75
2019-02-24T03:53:24.110Z,13.35
2019-02-24T03:55:51.568Z,12.45
2019-02-24T03:58:18.746Z,13.35
2019-02-24T04:00:47.954Z,12.80
2019-02-24T04:03:15.337Z,13.90
2019-02-24T04:05:43.035Z,14.30
2019-02-24T04:08:10.559Z,14.75
2019-02-24T04:10:37.942Z,13.50
2019-02-24T04:13:06.813Z,12.80
2019-02-24T04:15:34.993Z,14.93
2019-02-24T04:18:03.046Z,13.00
2019-02-24T04:20:30.816Z,13.15
2019-02-24T04:22:58.777Z,14.70
2019-02-24T04:25:27.290Z,13.28
2019-02-24T04:27:56.871Z,14.70
2019-02-24T04:30:24.254Z,14.07
2019-02-24T04:32:53.422Z,12.95
2019-02-24T04:35:21.030Z,13.90
2019-02-24T04:37:48.087Z,13.78
2019-02-24T04:40:15.174Z,14.78
2019-02-24T04:42:42.254Z,15.00
2019-02-24T04:45:09.686Z,14.28
2019-02-24T04:47:36.757Z,13.78
2019-02-24T04:50:04.424Z,14.25
2019-02-24T04:52:34.714Z,15.30
2019-02-24T04:55:02.099Z,14.47
2019-02-24T04:57:29.933Z,15.35
2019-02-24T04:59:58.163Z,15.15
2019-02-24T05:02:25.794Z,15.70
2019-02-24T05:04:54.194Z,14.47
2019-02-24T05:07:22.339Z,15.20
2019-02-24T05:09:49.704Z,13.65
2019-02-24T05:12:17.385Z,16.73
2019-02-24T05:14:47.307Z,15.78
2019-02-24T05:17:14.939Z,16.07
2019-02-24T05:19:42.679Z,15.50
2019-02-24T05:22:10.079Z,14.15
2019-02-24T05:24:37.144Z,14.40
2019-02-24T05:27:04.593Z,16.35
2019-02-24T05:29:31.669Z,14.75
2019-02-24T05:31:58.746Z,16.15
2019-02-24T05:34:26.041Z,17.25
2019-02-24T05:36:53.419Z,17.17
2019-02-24T05:39:20.830Z,16.30
2019-02-24T05:41:48.105Z,16.40
2019-02-24T05:44:15.175Z,15.85
2019-02-24T05:46:42.572Z,17.55
2019-02-24T05:49:09.788Z,16.57
2019-02-24T05:51:37.591Z,14.90
2019-02-24T05:54:04.677Z,17.30
2019-02-24T05:56:31.772Z,17.52
2019-02-24T05:58:59.294Z,16.02
2019-02-24T06:01:26.475Z,16.77
2019-02-24T06:03:53.643Z,18.00
2019-02-24T06:06:21.206Z,17.32
2019-02-24T06:08:51.816Z,16.65
2019-02-24T06:11:20.643Z,17.07
2019-02-24T06:13:48.065Z,16.12
2019-02-24T06:16:15.825Z,16.15
2019-02-24T06:18:42.887Z,16.32
2019-02-24T06:21:10.345Z,17.60
2019-02-24T06:23:38.397Z,16.32
2019-02-24T06:26:06.118Z,16.15
2019-02-24T06:28:33.939Z,15.80
2019-02-24T06:31:02.359Z,17.20
2019-02-24T06:33:31.761Z,16.70
2019-02-24T06:36:00.624Z,17.52
2019-02-24T06:38:28.566Z,17.50
2019-02-24T06:40:57.461Z,15.30
2019-02-24T06:43:24.847Z,17.20
2019-02-24T06:45:52.574Z,19.57
2019-02-24T06:48:19.666Z,17.00
2019-02-24T06:50:54.819Z,15.90
2019-02-24T06:53:23.695Z,17.02
2019-02-24T06:55:52.948Z,18.57
2019-02-24T06:58:20.919Z,18.37
2019-02-24T07:00:48.578Z,18.98
2019-02-24T07:03:15.969Z,19.60
2019-02-24T07:05:43.037Z,17.92
2019-02-24T07:08:11.166Z,17.12
2019-02-24T07:10:40.659Z,19.02
2019-02-24T07:13:08.422Z,18.23
2019-02-24T07:15:37.267Z,17.37
2019-02-24T07:18:05.794Z,17.52
2019-02-24T07:20:34.141Z,18.42
2019-02-24T07:23:01.626Z,19.77
2019-02-24T07:25:28.690Z,17.55
2019-02-24T07:27:56.438Z,17.65
2019-02-24T07:30:23.991Z,20.50
2019-02-24T07:32:52.800Z,18.92
2019-02-24T07:35:20.586Z,19.63
2019-02-24T07:37:48.039Z,18.62
2019-02-24T07:40:15.385Z,18.20
2019-02-24T07:42:43.023Z,17.90
2019-02-24T07:45:10.389Z,17.20
2019-02-24T07:47:37.569Z,19.20
2019-02-24T07:50:05.213Z,18.15
2019-02-24T07:52:33.611Z,18.55
2019-02-24T07:55:00.678Z,18.27
2019-02-24T07:57:27.930Z,19.67
2019-02-24T07:59:56.023Z,21.80
2019-02-24T08:02:23.110Z,19.57
2019-02-24T08:04:51.302Z,18.47
2019-02-24T08:07:19.781Z,18.60
2019-02-24T08:09:46.954Z,18.67
2019-02-24T08:12:15.161Z,17.98
2019-02-24T08:14:42.224Z,17.05
2019-02-24T08:17:09.313Z,17.27
2019-02-24T08:19:36.666Z,18.80
2019-02-24T08:22:03.751Z,17.90
2019-02-24T08:24:32.971Z,17.67
2019-02-24T08:27:00.367Z,17.97
2019-02-24T08:29:29.489Z,18.60
2019-02-24T08:31:56.722Z,18.47
2019-02-24T08:34:23.867Z,18.67
2019-02-24T08:36:51.274Z,18.87
2019-02-24T08:39:18.785Z,17.10
2019-02-24T08:41:46.028Z,19.47
2019-02-24T08:44:13.438Z,18.63
2019-02-24T08:46:42.338Z,18.00
2019-02-24T08:49:11.544Z,17.30
2019-02-24T08:51:40.736Z,19.23
2019-02-24T08:54:09.236Z,17.33
2019-02-24T08:56:37.279Z,18.33
2019-02-24T08:59:04.732Z,18.30
2019-02-24T09:01:32.135Z,18.90
2019-02-24T09:03:59.956Z,18.90
2019-02-24T09:06:27.002Z,17.77
2019-02-24T09:08:54.662Z,17.93
2019-02-24T09:11:22.120Z,19.03
2019-02-24T09:13:49.476Z,18.63
2019-02-24T09:16:16.829Z,18.67
2019-02-24T09:18:44.045Z,18.57
2019-02-24T09:21:12.197Z,19.50
2019-02-24T09:23:39.281Z,18.13
2019-02-24T09:26:06.503Z,17.43
2019-02-24T09:28:33.555Z,18.30
2019-02-24T09:31:01.220Z,19.00
2019-02-24T09:33:28.307Z,17.27
2019-02-24T09:35:55.356Z,17.30
2019-02-24T09:38:22.424Z,17.83
2019-02-24T09:40:50.206Z,17.33
2019-02-24T09:43:17.288Z,20.80
2019-02-24T09:45:45.483Z,18.00
2019-02-24T09:48:12.873Z,19.10
2019-02-24T09:50:40.249Z,18.73
2019-02-24T09:53:07.502Z,20.43
2019-02-24T09:55:35.241Z,20.70
2019-02-24T09:58:03.919Z,19.47
2019-02-24T10:00:32.228Z,18.60
2019-02-24T10:03:00.602Z,19.50
2019-02-24T10:05:28.029Z,17.90
2019-02-24T10:07:57.231Z,19.10
2019-02-24T10:10:24.323Z,19.00
2019-02-24T10:12:52.541Z,17.60
2019-02-24T10:15:19.699Z,44.73
2019-02-24T10:17:46.769Z,23.30
2019-02-24T10:20:13.937Z,22.00
2019-02-24T10:22:41.296Z,20.50
2019-02-24T10:25:08.379Z,19.00
2019-02-24T10:27:35.446Z,20.37
2019-02-24T10:30:02.570Z,20.17
2019-02-24T10:32:31.559Z,17.27
2019-02-24T10:34:58.638Z,16.20
2019-02-24T10:37:25.918Z,18.80
2019-02-24T10:39:53.332Z,17.77
2019-02-24T10:42:20.714Z,17.20
2019-02-24T10:44:48.250Z,17.40
2019-02-24T10:47:15.638Z,17.10
2019-02-24T10:49:42.710Z,18.27
2019-02-24T10:52:09.987Z,17.80
2019-02-24T10:54:37.054Z,19.43
2019-02-24T10:57:05.222Z,18.10
2019-02-24T10:59:34.450Z,19.13
2019-02-24T11:02:01.533Z,18.00
2019-02-24T11:04:28.981Z,18.13
2019-02-24T11:06:56.217Z,20.53
2019-02-24T11:09:23.279Z,19.40
2019-02-24T11:11:50.420Z,21.37
2019-02-24T11:14:18.682Z,19.60
2019-02-24T11:16:45.771Z,19.10
2019-02-24T11:19:14.492Z,21.07
2019-02-24T11:21:41.569Z,20.00
2019-02-24T11:24:09.586Z,17.80
2019-02-24T11:26:36.655Z,20.57
2019-02-24T11:29:05.534Z,21.10
2019-02-24T11:31:38.330Z,18.90
2019-02-24T11:34:01.663Z,18.97
2019-02-24T11:36:28.771Z,17.07
2019-02-24T11:38:56.201Z,17.63
2019-02-24T11:41:23.270Z,19.90
2019-02-24T11:43:50.352Z,19.77
2019-02-24T11:46:17.421Z,19.30
2019-02-24T11:48:45.018Z,18.53
2019-02-24T11:51:12.134Z,17.73
2019-02-24T11:53:39.207Z,17.67
2019-02-24T11:56:06.276Z,17.07
2019-02-24T11:58:33.358Z,17.53
2019-02-24T12:01:00.435Z,17.80
2019-02-24T12:03:27.850Z,18.33
2019-02-24T12:05:55.955Z,17.93
2019-02-24T12:08:23.038Z,18.13
2019-02-24T12:10:50.092Z,17.67
2019-02-24T12:13:17.179Z,17.13
2019-02-24T12:15:44.607Z,18.20
2019-02-24T12:18:12.731Z,17.67
2019-02-24T12:20:41.934Z,18.43
2019-02-24T12:23:09.698Z,17.93
2019-02-24T12:25:36.852Z,18.17
2019-02-24T12:28:04.190Z,18.97
2019-02-24T12:30:31.882Z,18.50
2019-02-24T12:33:00.543Z,18.23
2019-02-24T12:35:27.998Z,17.30
2019-02-24T12:37:55.055Z,17.53
2019-02-24T12:40:23.830Z,19.30
2019-02-24T12:42:51.797Z,18.33
2019-02-24T12:45:19.331Z,20.33
2019-02-24T12:47:47.125Z,18.87
2019-02-24T12:50:14.606Z,17.53
2019-02-24T12:52:42.049Z,19.10
2019-02-24T12:55:10.331Z,17.80
2019-02-24T12:57:37.412Z,19.23
2019-02-24T13:00:08.047Z,19.60
2019-02-24T13:02:35.115Z,18.93
2019-02-24T13:05:02.201Z,17.87
2019-02-24T13:07:31.195Z,17.17
2019-02-24T13:09:59.483Z,20.57
2019-02-24T13:12:26.534Z,18.67
2019-02-24T13:14:53.822Z,16.90
2019-02-24T13:17:20.900Z,18.37
2019-02-24T13:19:48.966Z,18.17
2019-02-24T13:22:18.016Z,19.10
2019-02-24T13:24:45.584Z,17.60
2019-02-24T13:27:14.823Z,18.30
2019-02-24T13:29:41.901Z,19.13
2019-02-24T13:32:14.889Z,15.70
2019-02-24T13:34:38.245Z,18.43
2019-02-24T13:37:07.452Z,20.10
2019-02-24T13:39:34.501Z,18.33
2019-02-24T13:42:01.689Z,18.30
2019-02-24T13:44:28.844Z,17.60
2019-02-24T13:46:55.910Z,18.90
2019-02-24T13:49:22.997Z,18.90
2019-02-24T13:51:50.393Z,21.57
2019-02-24T13:54:17.475Z,21.63
2019-02-24T13:56:45.464Z,20.70
2019-02-24T13:59:12.762Z,22.47
2019-02-24T14:01:40.824Z,23.63
2019-02-24T14:04:07.953Z,23.30
2019-02-24T14:06:35.001Z,24.03
2019-02-24T14:09:02.949Z,20.63
2019-02-24T14:11:32.268Z,20.50
2019-02-24T14:13:59.343Z,18.30
2019-02-24T14:16:26.569Z,18.40
2019-02-24T14:18:54.110Z,18.80
2019-02-24T14:21:21.469Z,18.13
2019-02-24T14:23:48.545Z,18.13
2019-02-24T14:26:15.588Z,18.50
2019-02-24T14:28:42.697Z,17.83
2019-02-24T14:31:11.207Z,18.33
2019-02-24T14:33:38.288Z,19.83
2019-02-24T14:36:06.403Z,18.43
2019-02-24T14:38:33.479Z,19.33
2019-02-24T14:41:03.792Z,18.90
2019-02-24T14:43:31.963Z,17.83
2019-02-24T14:45:59.068Z,18.00
2019-02-24T14:48:26.500Z,20.30
2019-02-24T14:50:54.956Z,20.20
2019-02-24T14:53:23.831Z,20.07
2019-02-24T14:55:53.447Z,17.80
2019-02-24T14:58:22.310Z,20.57
2019-02-24T15:00:50.020Z,20.40
2019-02-24T15:03:17.531Z,18.70
2019-02-24T15:05:44.601Z,19.33
2019-02-24T15:08:11.931Z,19.90
2019-02-24T15:10:39.011Z,19.83
2019-02-24T15:13:06.362Z,20.20
2019-02-24T15:15:33.627Z,19.37
2019-02-24T15:18:01.348Z,19.80
2019-02-24T15:20:28.415Z,19.27
2019-02-24T15:22:55.745Z,19.40
2019-02-24T15:25:23.545Z,18.60
2019-02-24T15:27:51.110Z,18.87
2019-02-24T15:30:24.357Z,20.67
2019-02-24T15:32:52.127Z,19.87
2019-02-24T15:35:20.099Z,20.87
2019-02-24T15:37:47.450Z,21.30
2019-02-24T15:40:14.822Z,21.30
2019-02-24T15:42:42.158Z,21.10
2019-02-24T15:45:09.495Z,23.07
2019-02-24T15:47:36.868Z,23.60
2019-02-24T15:50:04.154Z,24.73
2019-02-24T15:52:31.243Z,25.90
2019-02-24T15:54:58.313Z,24.20
2019-02-24T15:57:25.699Z,22.60
2019-02-24T15:59:52.838Z,22.93
2019-02-24T16:02:20.213Z,21.33
2019-02-24T16:04:47.266Z,22.27
2019-02-24T16:07:14.721Z,22.50
2019-02-24T16:09:41.786Z,25.87
2019-02-24T16:12:08.866Z,25.53
2019-02-24T16:14:35.983Z,25.93
2019-02-24T16:17:03.446Z,29.63
2019-02-24T16:19:30.527Z,22.57
2019-02-24T16:21:57.728Z,26.17
2019-02-24T16:24:24.798Z,22.00
2019-02-24T16:26:52.241Z,24.77
2019-02-24T16:29:19.482Z,25.60
2019-02-24T16:31:46.563Z,35.10
2019-02-24T16:34:13.643Z,23.90
2019-02-24T16:36:40.741Z,24.23
2019-02-24T16:39:08.975Z,22.97
2019-02-24T16:41:36.862Z,23.37
2019-02-24T16:44:05.710Z,21.97
2019-02-24T16:46:33.167Z,42.23
2019-02-24T16:49:00.253Z,22.47
2019-02-24T16:51:31.700Z,22.03
2019-02-24T16:54:01.002Z,22.10
2019-02-24T16:56:28.062Z,22.90
2019-02-24T16:58:55.725Z,22.07
2019-02-24T17:01:22.778Z,20.87
2019-02-24T17:03:50.176Z,22.93
2019-02-24T17:06:18.046Z,22.27
2019-02-24T17:08:52.178Z,20.97
2019-02-24T17:11:15.951Z,20.77
2019-02-24T17:13:44.779Z,22.27
2019-02-24T17:16:13.911Z,21.40
2019-02-24T17:18:41.000Z,19.97
2019-02-24T17:21:08.414Z,22.77
2019-02-24T17:23:36.191Z,27.53
2019-02-24T17:26:05.281Z,20.87
2019-02-24T17:28:32.631Z,21.27
2019-02-24T17:30:59.731Z,21.37
2019-02-24T17:33:30.003Z,22.10
2019-02-24T17:35:56.859Z,23.07
2019-02-24T17:38:23.957Z,22.93
2019-02-24T17:40:51.387Z,22.33
2019-02-24T17:43:18.831Z,21.73
2019-02-24T17:45:45.930Z,21.60
2019-02-24T17:48:13.007Z,21.37
2019-02-24T17:50:41.512Z,22.70
2019-02-24T17:53:08.581Z,21.97
2019-02-24T17:55:35.668Z,21.00
2019-02-24T17:58:02.737Z,20.63
2019-02-24T18:00:31.604Z,21.53
2019-02-24T18:02:58.757Z,20.30
2019-02-24T18:05:26.328Z,22.50
2019-02-24T18:07:53.393Z,21.40
2019-02-24T18:10:20.846Z,23.30
2019-02-24T18:12:47.940Z,22.53
2019-02-24T18:15:15.119Z,20.37
2019-02-24T18:17:42.925Z,21.53
2019-02-24T18:20:10.684Z,20.50
2019-02-24T18:22:38.319Z,19.97
2019-02-24T18:25:08.048Z,22.13
2019-02-24T18:27:35.647Z,22.60
2019-02-24T18:30:03.664Z,21.40
2019-02-24T18:32:32.307Z,22.63
2019-02-24T18:34:59.447Z,23.10
2019-02-24T18:37:26.554Z,22.40
2019-02-24T18:39:53.625Z,21.30
2019-02-24T18:42:20.887Z,21.07
2019-02-24T18:44:47.983Z,20.73
2019-02-24T18:47:15.055Z,19.90
2019-02-24T18:49:42.334Z,23.03
2019-02-24T18:52:09.415Z,22.27
2019-02-24T18:54:37.311Z,22.63
2019-02-24T18:57:04.863Z,22.20
2019-02-24T18:59:31.926Z,23.50
2019-02-24T19:01:58.999Z,24.47
2019-02-24T19:04:26.099Z,22.90
2019-02-24T19:06:53.197Z,24.37
2019-02-24T19:09:20.371Z,23.77
2019-02-24T19:11:48.571Z,24.50
2019-02-24T19:14:15.640Z,24.40
2019-02-24T19:16:42.746Z,24.27
2019-02-24T19:19:09.870Z,22.53
2019-02-24T19:21:36.998Z,22.47
2019-02-24T19:24:04.074Z,24.17
2019-02-24T19:26:31.390Z,24.53
2019-02-24T19:28:58.487Z,23.80
2019-02-24T19:31:27.381Z,24.73
2019-02-24T19:33:54.481Z,22.90
2019-02-24T19:36:21.938Z,24.80
2019-02-24T19:38:49.021Z,23.53
2019-02-24T19:41:16.120Z,25.50
2019-02-24T19:43:43.727Z,23.97
2019-02-24T19:46:10.879Z,23.67
2019-02-24T19:48:42.020Z,25.10
2019-02-24T19:51:08.042Z,25.53
2019-02-24T19:53:35.117Z,25.30
2019-02-24T19:56:02.227Z,26.93
2019-02-24T19:58:29.315Z,28.17
2019-02-24T20:00:56.537Z,27.70
2019-02-24T20:03:23.648Z,26.47
2019-02-24T20:05:50.950Z,26.07
2019-02-24T20:08:18.308Z,26.17
2019-02-24T20:10:45.749Z,25.23
2019-02-24T20:13:13.274Z,23.97
2019-02-24T20:15:41.870Z,26.37
2019-02-24T20:18:09.098Z,24.70
2019-02-24T20:20:36.189Z,23.50
2019-02-24T20:23:03.418Z,26.00
2019-02-24T20:25:30.953Z,26.53
2019-02-24T20:27:58.137Z,26.20
2019-02-24T20:30:25.903Z,25.10
2019-02-24T20:32:55.042Z,23.70
2019-02-24T20:35:22.137Z,24.33
2019-02-24T20:37:50.171Z,25.90
2019-02-24T20:40:17.617Z,25.47
2019-02-24T20:42:44.891Z,24.97
2019-02-24T20:45:13.763Z,26.13
2019-02-24T20:47:40.846Z,24.87
2019-02-24T20:50:09.401Z,26.20
2019-02-24T20:52:36.560Z,26.97
2019-02-24T20:55:05.226Z,25.40
2019-02-24T20:57:32.300Z,26.20
2019-02-24T20:59:59.345Z,23.87
2019-02-24T21:02:26.797Z,23.90
2019-02-24T21:04:53.962Z,25.40
2019-02-24T21:07:22.502Z,24.77
2019-02-24T21:09:49.569Z,25.87
2019-02-24T21:12:16.645Z,24.70
2019-02-24T21:14:44.113Z,24.53
2019-02-24T21:17:11.189Z,24.80
2019-02-24T21:19:39.111Z,26.13
2019-02-24T21:22:06.553Z,27.00
2019-02-24T21:24:33.645Z,25.40
2019-02-24T21:27:00.831Z,24.87
2019-02-24T21:29:29.380Z,27.77
2019-02-24T21:31:56.487Z,28.33
2019-02-24T21:34:23.563Z,27.40
2019-02-24T21:36:51.743Z,26.50
2019-02-24T21:39:18.835Z,26.10
2019-02-24T21:41:46.370Z,27.13
2019-02-24T21:44:13.467Z,22.77
2019-02-24T21:46:40.549Z,25.57
2019-02-24T21:49:07.747Z,24.63
2019-02-24T21:51:35.224Z,25.73
2019-02-24T21:54:02.312Z,25.00
2019-02-24T21:56:29.396Z,26.03
2019-02-24T21:58:56.539Z,24.40
2019-02-24T22:01:23.611Z,22.33
2019-02-24T22:03:50.715Z,25.17
2019-02-24T22:06:18.828Z,23.43
2019-02-24T22:08:45.919Z,24.80
2019-02-24T22:11:14.002Z,24.33
2019-02-24T22:13:41.091Z,25.53
2019-02-24T22:16:10.191Z,26.33
2019-02-24T22:18:37.391Z,25.67
2019-02-24T22:21:09.034Z,23.67
2019-02-24T22:23:36.118Z,23.90
2019-02-24T22:26:03.571Z,26.70
2019-02-24T22:28:30.688Z,24.30
2019-02-24T22:30:57.922Z,24.73
2019-02-24T22:33:25.431Z,24.47
2019-02-24T22:35:52.510Z,25.43
2019-02-24T22:38:19.614Z,24.40
2019-02-24T22:40:54.217Z,24.33
2019-02-24T22:43:15.670Z,27.83
2019-02-24T22:45:42.783Z,26.10
2019-02-24T22:48:09.958Z,24.00
2019-02-24T22:50:37.459Z,25.73
2019-02-24T22:53:04.590Z,24.83
2019-02-24T22:55:32.986Z,26.43
2019-02-24T22:58:00.752Z,26.93
2019-02-24T23:00:58.125Z,25.37
2019-02-24T23:03:29.751Z,27.70
2019-02-24T23:05:56.822Z,25.80
2019-02-24T23:08:24.009Z,27.50
2019-02-24T23:10:51.751Z,27.00
2019-02-24T23:13:19.290Z,27.33
2019-02-24T23:15:47.298Z,27.73
2019-02-24T23:18:15.222Z,26.00
2019-02-24T23:20:42.699Z,25.97
2019-02-24T23:23:10.190Z,26.03
2019-02-24T23:25:37.243Z,26.47
2019-02-24T23:28:04.882Z,30.03
2019-02-24T23:30:33.426Z,29.23
2019-02-24T23:33:00.985Z,28.57
2019-02-24T23:35:28.474Z,28.40
2019-02-24T23:37:55.950Z,30.50
2019-02-24T23:40:23.589Z,29.50
2019-02-24T23:42:52.452Z,29.73
2019-02-24T23:45:19.906Z,27.07
2019-02-24T23:47:47.465Z,28.80
2019-02-24T23:50:14.869Z,29.10
2019-02-24T23:52:42.278Z,28.60
2019-02-24T23:55:10.458Z,31.48
2019-02-24T23:57:37.524Z,30.00
